Time;durP1;ratioP1;P1;durP2;ratioP2;P2;SDS_P1;SDS_P2;PMS_P1;PMS_P2;Temp;Humidity;BMP_temperature;BMP_pressure;BME280_temperature;BME280_humidity;BME280_pressure;Samples;Min_cycle;Max_cycle;Signal;HPM_P1;HPM_P2
2021/05/26 00:01:01;;;;;;;13.70;4.57;;;9.80;86.40;;;;;;5057742;28;20033;-34
2021/05/26 00:03:26;;;;;;;12.02;5.30;;;9.70;86.90;;;;;;5058044;28;20108;-34
2021/05/26 00:05:52;;;;;;;13.13;5.53;;;9.50;87.40;;;;;;5057793;28;20369;-34
2021/05/26 00:08:34;;;;;;;14.65;4.15;;;9.50;87.10;;;;;;5058480;28;20056;-35
2021/05/26 00:11:04;;;;;;;11.43;4.80;;;9.50;86.90;;;;;;5057367;28;20438;-35
2021/05/26 00:13:30;;;;;;;6.47;3.93;;;9.60;87.10;;;;;;5057618;28;20029;-35
2021/05/26 00:15:56;;;;;;;10.77;4.43;;;9.50;87.00;;;;;;5057525;28;20270;-35
2021/05/26 00:18:22;;;;;;;9.45;4.70;;;9.50;86.90;;;;;;5057786;28;20033;-35
2021/05/26 00:20:50;;;;;;;10.90;4.28;;;9.40;87.70;;;;;;5056951;28;20021;-35
2021/05/26 00:23:16;;;;;;;17.33;4.72;;;9.50;87.50;;;;;;5057294;28;20051;-35
2021/05/26 00:25:42;;;;;;;4.43;3.30;;;9.40;86.90;;;;;;5057687;28;20424;-35
2021/05/26 00:28:08;;;;;;;8.48;4.25;;;9.30;87.30;;;;;;5055897;28;20024;-35
2021/05/26 00:30:36;;;;;;;9.57;3.83;;;9.30;87.50;;;;;;5056832;28;20033;-35
2021/05/26 00:33:03;;;;;;;12.95;4.35;;;9.40;87.20;;;;;;5055277;28;20027;-35
2021/05/26 00:35:28;;;;;;;6.50;3.45;;;9.40;86.70;;;;;;5056421;28;20021;-35
2021/05/26 00:37:54;;;;;;;8.43;3.20;;;9.40;86.60;;;;;;5057127;28;20028;-35
2021/05/26 00:40:20;;;;;;;10.85;3.08;;;9.30;86.60;;;;;;5056991;28;20096;-35
2021/05/26 00:42:46;;;;;;;11.50;4.28;;;9.30;86.40;;;;;;5056941;28;20055;-35
2021/05/26 00:45:12;;;;;;;8.95;2.60;;;9.20;86.80;;;;;;5056552;28;20029;-35
2021/05/26 00:47:42;;;;;;;8.35;3.03;;;9.20;86.50;;;;;;5056663;28;20033;-35
2021/05/26 00:50:11;;;;;;;6.60;2.78;;;9.10;86.60;;;;;;5056972;28;20381;-35
2021/05/26 00:52:37;;;;;;;10.18;3.05;;;9.20;86.50;;;;;;5056212;28;20047;-35
2021/05/26 00:55:07;;;;;;;9.43;3.72;;;9.10;86.70;;;;;;5055098;28;20025;-35
2021/05/26 00:57:33;;;;;;;4.40;2.90;;;9.00;87.00;;;;;;5056873;28;20032;-35
2021/05/26 00:59:59;;;;;;;6.32;3.17;;;9.00;86.70;;;;;;5056077;28;20068;-35
2021/05/26 01:02:24;;;;;;;7.22;3.20;;;9.00;86.60;;;;;;5055976;28;20057;-35
2021/05/26 01:04:50;;;;;;;8.18;2.95;;;9.00;86.50;;;;;;5055871;28;20029;-35
2021/05/26 01:07:16;;;;;;;4.47;2.97;;;9.10;86.20;;;;;;5055888;28;20048;-35
2021/05/26 01:09:42;;;;;;;5.75;2.58;;;9.10;85.70;;;;;;5056128;28;20027;-35
2021/05/26 01:12:08;;;;;;;5.60;3.10;;;9.20;85.80;;;;;;5056145;28;20403;-36
2021/05/26 01:14:33;;;;;;;6.50;2.45;;;9.20;85.70;;;;;;5055865;28;20382;-36
2021/05/26 01:16:59;;;;;;;9.10;2.30;;;9.20;85.40;;;;;;5054030;28;20033;-36
2021/05/26 01:19:25;;;;;;;3.67;2.42;;;9.20;85.20;;;;;;5055308;28;20025;-36
2021/05/26 01:21:52;;;;;;;4.82;2.58;;;9.20;85.20;;;;;;5055230;28;20382;-36
2021/05/26 01:24:18;;;;;;;5.20;3.42;;;9.30;84.70;;;;;;5055418;28;20029;-36
2021/05/26 01:26:48;;;;;;;6.15;2.35;;;9.30;84.50;;;;;;5055260;28;20028;-37
2021/05/26 01:29:15;;;;;;;5.10;2.20;;;9.30;84.60;;;;;;5054248;28;20039;-36
2021/05/26 01:31:41;;;;;;;7.47;3.10;;;9.30;84.40;;;;;;5055587;28;20061;-36
2021/05/26 01:34:06;;;;;;;8.07;2.55;;;9.40;84.50;;;;;;5055071;28;20472;-37
2021/05/26 01:36:34;;;;;;;8.98;2.90;;;9.30;84.40;;;;;;5055482;28;20029;-36
2021/05/26 01:39:05;;;;;;;7.80;3.85;;;9.40;83.90;;;;;;5055253;28;20083;-36
2021/05/26 01:41:31;;;;;;;;;;;9.30;84.00;;;;;;5055361;28;20380;-36
2021/05/26 01:43:57;;;;;;;8.73;3.00;;;9.30;84.50;;;;;;5054975;28;19909;-37
2021/05/26 01:46:24;;;;;;;6.45;3.03;;;9.40;84.20;;;;;;5054703;28;20043;-36
2021/05/26 01:48:50;;;;;;;10.02;2.78;;;9.50;84.10;;;;;;5054815;28;20036;-36
2021/05/26 01:51:17;;;;;;;5.68;2.75;;;9.40;84.10;;;;;;5055072;28;20055;-36
2021/05/26 01:53:43;;;;;;;9.88;3.45;;;9.40;84.40;;;;;;5055380;28;20461;-36
2021/05/26 01:56:36;;;;;;;11.95;2.90;;;9.50;84.00;;;;;;5053394;28;20086;-36
2021/05/26 01:59:02;;;;;;;15.23;4.07;;;9.50;84.30;;;;;;5054654;28;20037;-36
2021/05/26 02:01:27;;;;;;;12.73;2.42;;;9.50;84.20;;;;;;5054762;28;20401;-37
2021/05/26 02:03:54;;;;;;;11.93;3.42;;;9.50;84.30;;;;;;5054637;28;20112;-37
2021/05/26 02:06:21;;;;;;;8.10;3.35;;;9.50;84.30;;;;;;5055026;28;20064;-36
2021/05/26 02:08:50;;;;;;;8.30;3.75;;;9.70;84.50;;;;;;5054555;28;20381;-36
2021/05/26 02:14:09;;;;;;;8.05;3.25;;;9.50;84.70;;;;;;5054227;28;20110;-36
2021/05/26 02:16:36;;;;;;;17.60;4.13;;;9.70;84.30;;;;;;5053957;28;20021;-36
2021/05/26 02:19:03;;;;;;;18.77;6.45;;;9.60;84.40;;;;;;5054131;28;20029;-36
2021/05/26 02:21:28;;;;;;;11.10;3.95;;;9.60;84.20;;;;;;5054237;28;20028;-36
2021/05/26 02:23:54;;;;;;;11.07;3.80;;;9.70;84.10;;;;;;5054565;28;20397;-36
2021/05/26 02:26:20;;;;;;;16.95;4.15;;;9.70;84.00;;;;;;5053994;28;20028;-36
2021/05/26 02:28:46;;;;;;;8.05;3.13;;;9.70;84.40;;;;;;5054109;28;20436;-36
2021/05/26 02:31:11;;;;;;;5.93;3.20;;;9.80;83.90;;;;;;5054020;28;20114;-36
2021/05/26 02:33:38;;;;;;;8.88;5.05;;;9.70;84.30;;;;;;5054261;28;20358;-36
2021/05/26 02:36:07;;;;;;;7.68;3.55;;;9.70;84.10;;;;;;5052583;28;20029;-37
2021/05/26 02:38:33;;;;;;;13.27;3.40;;;9.70;84.20;;;;;;5053882;28;20481;-37
2021/05/26 02:40:58;;;;;;;16.83;5.55;;;9.70;84.40;;;;;;5053894;28;20031;-36
2021/05/26 02:43:24;;;;;;;13.77;3.85;;;9.80;84.40;;;;;;5053637;28;20036;-36
2021/05/26 02:45:50;;;;;;;14.43;3.90;;;9.70;84.50;;;;;;5053614;28;20033;-36
2021/05/26 02:48:16;;;;;;;8.57;3.40;;;9.70;84.70;;;;;;5053957;28;20033;-36
2021/05/26 02:50:42;;;;;;;15.98;4.53;;;9.70;84.90;;;;;;5052334;28;20438;-37
2021/05/26 02:53:08;;;;;;;10.13;4.38;;;9.80;84.40;;;;;;5053406;28;20121;-36
2021/05/26 02:55:33;;;;;;;13.05;4.43;;;9.70;84.80;;;;;;5053472;28;20477;-36
2021/05/26 02:57:59;;;;;;;9.65;3.67;;;9.80;84.60;;;;;;5053522;28;20493;-37
2021/05/26 03:00:25;;;;;;;15.75;5.20;;;9.70;84.80;;;;;;5053390;28;20107;-37
2021/05/26 03:02:51;;;;;;;22.27;5.10;;;9.70;84.80;;;;;;5053714;28;20025;-37
2021/05/26 03:05:18;;;;;;;20.48;5.22;;;9.70;84.80;;;;;;5052425;28;20422;-36
2021/05/26 03:07:45;;;;;;;11.57;5.47;;;9.80;84.60;;;;;;5053653;28;20027;-37
2021/05/26 03:10:13;;;;;;;22.42;5.70;;;9.80;84.70;;;;;;5053242;28;20435;-36
2021/05/26 03:12:39;;;;;;;20.30;5.68;;;9.70;85.00;;;;;;5053529;28;20491;-36
2021/05/26 03:15:07;;;;;;;17.17;5.32;;;9.80;84.80;;;;;;5053323;28;20171;-37
2021/05/26 03:17:33;;;;;;;12.95;5.07;;;9.70;84.90;;;;;;5053067;28;20025;-37
2021/05/26 03:19:59;;;;;;;20.52;8.15;;;9.80;84.90;;;;;;5053035;28;20330;-37
2021/05/26 03:22:26;;;;;;;17.23;5.35;;;9.80;84.80;;;;;;5051905;28;20020;-37
2021/05/26 03:24:52;;;;;;;11.63;5.55;;;9.80;84.70;;;;;;5053225;28;20083;-36
2021/05/26 03:27:21;;;;;;;10.85;5.30;;;9.70;84.90;;;;;;5053033;28;20032;-36
2021/05/26 03:29:46;;;;;;;18.38;5.82;;;9.70;85.10;;;;;;5053279;28;20024;-36
2021/05/26 03:32:12;;;;;;;15.82;6.07;;;9.70;84.90;;;;;;5051823;28;20017;-36
2021/05/26 03:34:38;;;;;;;16.05;5.68;;;9.70;85.10;;;;;;5052948;28;20199;-36
2021/05/26 03:37:03;;;;;;;18.05;6.30;;;9.80;84.80;;;;;;5053249;28;20021;-36
2021/05/26 03:39:29;;;;;;;16.40;5.85;;;9.80;84.50;;;;;;5052883;28;20082;-37
2021/05/26 03:41:55;;;;;;;15.50;5.60;;;9.80;84.80;;;;;;5053337;28;20412;-36
2021/05/26 03:44:20;;;;;;;11.27;5.13;;;9.80;84.80;;;;;;5053380;28;20113;-37
2021/05/26 03:46:46;;;;;;;19.95;5.60;;;9.80;84.30;;;;;;5053441;28;20036;-36
2021/05/26 03:49:12;;;;;;;19.35;6.47;;;9.80;84.50;;;;;;5053194;28;20381;-36
2021/05/26 03:51:37;;;;;;;15.45;6.10;;;9.80;84.40;;;;;;5052849;28;20128;-36
2021/05/26 03:54:03;;;;;;;13.48;4.80;;;9.80;84.40;;;;;;5053565;28;20025;-36
2021/05/26 03:56:29;;;;;;;17.65;6.30;;;9.80;84.80;;;;;;5053197;28;20540;-36
2021/05/26 03:58:58;;;;;;;18.02;5.38;;;9.80;84.30;;;;;;5051908;28;20025;-37
2021/05/26 04:01:24;;;;;;;12.73;5.47;;;9.90;84.20;;;;;;5053145;28;20036;-36
2021/05/26 04:03:52;;;;;;;14.60;6.47;;;9.80;84.40;;;;;;5053660;28;20108;-35
2021/05/26 04:06:17;;;;;;;13.77;5.28;;;9.80;85.10;;;;;;5053118;28;20074;-35
2021/05/26 04:08:43;;;;;;;14.50;5.82;;;9.90;84.60;;;;;;5051774;28;20096;-35
2021/05/26 04:11:09;;;;;;;13.68;5.97;;;9.80;85.40;;;;;;5052891;28;20022;-35
2021/05/26 04:13:34;;;;;;;12.95;5.65;;;9.80;85.40;;;;;;5052817;28;20025;-35
2021/05/26 04:16:00;;;;;;;18.52;7.40;;;9.70;85.80;;;;;;5051566;28;20032;-35
2021/05/26 04:18:25;;;;;;;15.52;5.60;;;9.80;85.10;;;;;;5053138;28;20021;-35
2021/05/26 04:20:51;;;;;;;12.38;5.82;;;9.80;85.10;;;;;;5052863;28;20032;-36
2021/05/26 04:23:17;;;;;;;18.42;6.25;;;9.80;85.30;;;;;;5052753;28;20029;-36
2021/05/26 04:25:48;;;;;;;15.63;6.53;;;9.80;85.10;;;;;;5053056;28;20025;-36
2021/05/26 04:28:13;;;;;;;13.30;5.72;;;9.80;84.90;;;;;;5052736;28;20021;-36
2021/05/26 04:30:39;;;;;;;23.52;6.88;;;9.80;85.50;;;;;;5052779;28;20028;-36
2021/05/26 04:33:05;;;;;;;25.67;7.22;;;9.80;85.30;;;;;;5052627;28;20025;-36
2021/05/26 04:35:30;;;;;;;15.93;6.75;;;9.70;85.80;;;;;;5052649;28;20025;-36
2021/05/26 04:37:56;;;;;;;15.10;5.30;;;9.80;85.50;;;;;;5053888;28;20035;-36
2021/05/26 04:40:22;;;;;;;13.30;4.47;;;9.80;85.50;;;;;;5056630;28;20021;-36
2021/05/26 04:42:47;;;;;;;11.95;5.05;;;9.70;85.60;;;;;;5056507;28;20075;-36
2021/05/26 04:45:14;;;;;;;16.95;5.00;;;9.80;85.50;;;;;;5056381;28;20134;-36
2021/05/26 04:47:39;;;;;;;19.45;5.65;;;9.80;85.40;;;;;;5056340;28;20040;-36
2021/05/26 04:50:05;;;;;;;14.63;5.43;;;9.90;85.00;;;;;;5056748;28;20025;-36
2021/05/26 04:52:31;;;;;;;20.58;5.68;;;9.90;84.80;;;;;;5056002;28;20045;-36
2021/05/26 04:54:57;;;;;;;10.50;5.20;;;9.90;84.50;;;;;;5056448;28;20112;-36
2021/05/26 04:57:22;;;;;;;14.90;5.43;;;9.80;85.30;;;;;;5056399;28;20087;-36
2021/05/26 04:59:49;;;;;;;13.82;5.70;;;9.80;85.30;;;;;;5057029;28;20099;-36
2021/05/26 05:02:15;;;;;;;11.88;5.13;;;10.00;84.20;;;;;;5061563;28;20025;-37
2021/05/26 05:04:40;;;;;;;9.48;4.68;;;9.90;83.90;;;;;;5056207;28;20031;-37
2021/05/26 05:07:06;;;;;;;20.92;7.15;;;9.90;84.40;;;;;;5056634;28;20029;-37
2021/05/26 05:09:31;;;;;;;14.20;6.25;;;9.90;84.60;;;;;;5056420;28;20029;-37
2021/05/26 05:11:57;;;;;;;11.32;4.97;;;10.00;83.90;;;;;;5056538;28;20021;-37
2021/05/26 05:14:23;;;;;;;13.00;4.63;;;10.10;83.40;;;;;;5056115;28;20108;-37
2021/05/26 05:16:48;;;;;;;17.17;5.95;;;10.20;83.20;;;;;;5058969;28;20033;-37
2021/05/26 05:19:14;;;;;;;8.05;4.43;;;10.20;82.80;;;;;;5056178;28;20104;-37
2021/05/26 05:21:40;;;;;;;15.63;5.43;;;10.30;82.60;;;;;;5055286;28;20048;-36
2021/05/26 05:24:06;;;;;;;11.98;4.65;;;10.20;82.90;;;;;;5055499;28;20462;-36
2021/05/26 05:26:32;;;;;;;8.80;3.97;;;10.20;82.90;;;;;;5056426;28;20427;-38
2021/05/26 05:28:58;;;;;;;9.60;4.85;;;10.30;82.80;;;;;;5055720;28;20395;-36
2021/05/26 05:31:24;;;;;;;14.70;5.13;;;10.30;83.00;;;;;;5055247;28;20025;-36
2021/05/26 05:33:49;;;;;;;16.02;5.30;;;10.20;83.40;;;;;;5055275;28;20101;-36
2021/05/26 05:36:15;;;;;;;13.35;5.20;;;10.10;83.90;;;;;;5055196;28;20455;-37
2021/05/26 05:38:40;;;;;;;14.75;5.93;;;10.00;84.30;;;;;;5055122;28;20033;-36
2021/05/26 05:41:07;;;;;;;8.50;4.13;;;10.00;84.00;;;;;;5054979;28;20029;-36
2021/05/26 05:43:33;;;;;;;12.75;4.10;;;10.00;83.80;;;;;;5055110;28;20449;-36
2021/05/26 05:46:01;;;;;;;7.90;3.50;;;9.80;84.30;;;;;;5054874;28;20054;-36
2021/05/26 05:48:26;;;;;;;11.25;3.50;;;9.80;84.30;;;;;;5055283;28;20033;-37
2021/05/26 05:50:52;;;;;;;7.20;3.58;;;10.00;83.80;;;;;;5053647;28;20021;-35
2021/05/26 05:53:17;;;;;;;7.65;3.08;;;10.00;83.90;;;;;;5054220;28;20063;-36
2021/05/26 05:55:43;;;;;;;6.15;3.55;;;10.10;83.60;;;;;;5053198;28;20393;-36
2021/05/26 05:58:11;;;;;;;4.32;2.75;;;9.80;83.60;;;;;;5054181;28;20194;-36
2021/05/26 06:00:38;;;;;;;6.88;3.50;;;10.00;83.30;;;;;;5054477;28;20026;-36
2021/05/26 06:03:04;;;;;;;11.20;2.92;;;10.00;83.30;;;;;;5054281;28;20028;-36
2021/05/26 06:05:30;;;;;;;12.00;2.65;;;10.10;83.00;;;;;;5054253;28;20048;-36
2021/05/26 06:07:56;;;;;;;8.27;2.28;;;9.90;83.00;;;;;;5055172;28;20025;-36
2021/05/26 06:10:21;;;;;;;9.15;2.20;;;9.90;83.20;;;;;;5054425;28;20075;-36
2021/05/26 06:12:49;;;;;;;6.57;2.22;;;9.90;82.90;;;;;;5054250;28;20017;-37
2021/05/26 06:15:15;;;;;;;3.92;2.38;;;10.00;82.80;;;;;;5054364;28;20053;-38
2021/05/26 06:17:41;;;;;;;11.07;3.03;;;10.20;82.40;;;;;;5052658;28;20139;-38
2021/05/26 06:20:07;;;;;;;6.28;2.80;;;10.30;81.40;;;;;;5053139;28;20124;-36
2021/05/26 06:22:33;;;;;;;10.20;3.83;;;10.50;81.20;;;;;;5054324;28;20079;-36
2021/05/26 06:24:59;;;;;;;8.20;3.50;;;10.50;81.20;;;;;;5053929;28;20420;-36
2021/05/26 06:27:24;;;;;;;4.45;3.15;;;10.70;80.00;;;;;;5054390;28;20072;-36
2021/05/26 06:29:50;;;;;;;5.25;2.58;;;10.80;79.50;;;;;;5052949;28;20021;-37
2021/05/26 06:32:16;;;;;;;11.68;2.60;;;10.90;78.70;;;;;;5053689;28;20025;-37
2021/05/26 06:34:42;;;;;;;2.03;1.85;;;10.50;80.00;;;;;;5053649;28;20032;-36
2021/05/26 06:37:07;;;;;;;6.07;2.63;;;10.70;79.70;;;;;;5052310;28;20029;-36
2021/05/26 06:39:33;;;;;;;8.80;3.63;;;10.70;79.50;;;;;;5054126;28;20033;-35
2021/05/26 06:41:58;;;;;;;4.32;2.83;;;10.70;79.60;;;;;;5053796;28;20029;-35
2021/05/26 06:44:24;;;;;;;8.60;3.00;;;10.70;79.40;;;;;;5053433;28;20029;-40
2021/05/26 06:46:50;;;;;;;4.40;2.83;;;10.70;80.10;;;;;;5054467;28;20083;-34
2021/05/26 06:49:15;;;;;;;6.07;2.28;;;10.60;79.70;;;;;;5051956;28;20457;-35
2021/05/26 06:51:41;;;;;;;5.68;3.22;;;10.80;79.40;;;;;;5052942;28;20048;-36
2021/05/26 06:54:07;;;;;;;8.60;2.65;;;10.80;79.20;;;;;;5053781;28;20074;-36
2021/05/26 06:56:33;;;;;;;7.63;3.90;;;10.90;78.90;;;;;;5053310;28;20469;-36
2021/05/26 06:58:59;;;;;;;4.05;2.55;;;10.80;78.80;;;;;;5053750;28;20025;-35
2021/05/26 07:01:25;;;;;;;7.35;2.53;;;10.90;79.00;;;;;;5051509;28;20028;-34
2021/05/26 07:03:50;;;;;;;5.10;3.20;;;10.90;78.30;;;;;;5053113;28;20117;-35
2021/05/26 07:06:16;;;;;;;10.65;3.05;;;10.90;78.30;;;;;;5053620;28;20178;-35
2021/05/26 07:08:42;;;;;;;6.15;2.33;;;11.30;77.40;;;;;;5053733;28;20025;-34
2021/05/26 07:11:09;;;;;;;2.75;2.22;;;11.30;76.70;;;;;;5052256;28;20473;-34
2021/05/26 07:13:35;;;;;;;6.07;3.05;;;11.60;75.90;;;;;;5053433;28;20036;-34
2021/05/26 07:16:01;;;;;;;3.70;2.60;;;11.80;74.80;;;;;;5053865;28;20163;-37
2021/05/26 07:18:28;;;;;;;5.40;2.70;;;12.10;74.50;;;;;;5054054;28;20429;-36
2021/05/26 07:20:54;;;;;;;7.35;2.90;;;11.40;75.40;;;;;;5053867;28;20029;-34
2021/05/26 07:23:20;;;;;;;9.98;3.17;;;11.30;76.00;;;;;;5053336;28;20409;-36
2021/05/26 07:25:46;;;;;;;7.20;3.05;;;11.30;76.50;;;;;;5053388;28;20021;-35
2021/05/26 07:28:12;;;;;;;6.68;3.10;;;11.60;75.80;;;;;;5053462;28;20032;-36
2021/05/26 07:30:39;;;;;;;5.30;3.22;;;11.70;75.50;;;;;;5053535;28;20039;-36
2021/05/26 07:33:05;;;;;;;4.78;2.90;;;11.80;74.20;;;;;;5053460;28;20021;-36
2021/05/26 07:35:31;;;;;;;5.55;3.25;;;11.50;74.60;;;;;;5053626;28;20025;-36
2021/05/26 07:37:56;;;;;;;4.78;2.95;;;11.30;75.00;;;;;;5053213;28;20035;-35
2021/05/26 07:40:22;;;;;;;7.07;2.95;;;11.30;75.20;;;;;;5053530;28;20109;-35
2021/05/26 07:42:47;;;;;;;4.28;3.70;;;11.60;74.90;;;;;;5053308;28;20028;-36
2021/05/26 07:45:13;;;;;;;3.15;2.35;;;11.60;75.40;;;;;;5052200;28;20025;-37
2021/05/26 07:47:39;;;;;;;4.40;3.42;;;11.60;74.20;;;;;;5053738;28;20018;-36
2021/05/26 07:50:06;;;;;;;9.23;3.35;;;11.30;75.00;;;;;;5053401;28;20068;-37
2021/05/26 07:52:32;;;;;;;4.05;3.10;;;11.70;73.90;;;;;;5052894;28;20477;-36
2021/05/26 07:54:58;;;;;;;4.00;2.70;;;11.90;73.10;;;;;;5053193;28;20105;-36
2021/05/26 07:57:24;;;;;;;5.45;2.67;;;11.80;73.30;;;;;;5052672;28;20029;-35
2021/05/26 07:59:50;;;;;;;5.25;3.03;;;11.70;73.40;;;;;;5053282;28;20025;-35
2021/05/26 08:02:17;;;;;;;7.57;3.42;;;11.80;72.70;;;;;;5052990;28;20385;-35
2021/05/26 08:04:43;;;;;;;6.63;3.17;;;11.70;72.70;;;;;;5053311;28;20430;-36
2021/05/26 08:07:09;;;;;;;6.15;3.50;;;11.80;73.40;;;;;;5052604;28;20112;-35
2021/05/26 08:09:38;;;;;;;5.13;2.65;;;12.30;71.20;;;;;;5053265;28;20079;-36
2021/05/26 08:12:05;;;;;;;8.43;2.92;;;12.30;71.00;;;;;;5052751;28;20449;-36
2021/05/26 08:14:31;;;;;;;12.52;4.80;;;12.60;68.80;;;;;;5056728;28;20095;-35
2021/05/26 08:17:00;;;;;;;8.48;3.10;;;12.60;68.90;;;;;;5057080;28;20029;-35
2021/05/26 08:19:26;;;;;;;3.30;2.60;;;12.50;68.00;;;;;;5056642;28;20040;-36
2021/05/26 08:21:51;;;;;;;4.05;2.55;;;13.20;66.20;;;;;;5056545;28;20045;-34
2021/05/26 08:24:17;;;;;;;5.85;2.72;;;13.50;66.20;;;;;;5056764;28;20057;-35
2021/05/26 08:26:43;;;;;;;7.32;3.63;;;13.50;65.50;;;;;;5056605;28;20017;-37
2021/05/26 08:29:09;;;;;;;5.80;4.15;;;13.10;67.40;;;;;;5056928;28;20036;-35
2021/05/26 08:31:35;;;;;;;4.05;3.13;;;13.10;67.50;;;;;;5056918;28;20051;-35
2021/05/26 08:34:02;;;;;;;6.40;4.70;;;12.60;68.40;;;;;;5056505;28;20064;-35
2021/05/26 08:36:27;;;;;;;5.93;4.53;;;12.20;70.00;;;;;;5057084;28;20021;-35
2021/05/26 08:38:53;;;;;;;7.93;4.82;;;11.90;71.30;;;;;;5056488;28;20028;-35
2021/05/26 08:41:21;;;;;;;17.45;9.38;;;11.80;72.20;;;;;;5056611;28;20028;-36
2021/05/26 08:43:48;;;;;;;6.20;5.60;;;12.70;69.60;;;;;;5056526;28;20032;-36
2021/05/26 08:46:14;;;;;;;5.97;3.20;;;13.50;66.30;;;;;;5056752;28;20021;-36
2021/05/26 08:48:42;;;;;;;6.22;3.70;;;14.10;63.80;;;;;;5056641;28;20017;-36
2021/05/26 08:51:13;;;;;;;3.67;3.00;;;14.40;62.80;;;;;;5055862;28;20048;-36
2021/05/26 08:53:40;;;;;;;7.13;3.28;;;14.40;60.50;;;;;;5055369;28;20064;-35
2021/05/26 08:56:06;;;;;;;4.45;2.78;;;14.00;62.50;;;;;;5055674;28;20112;-35
2021/05/26 08:58:43;;;;;;;4.25;2.50;;;13.80;63.40;;;;;;5055336;28;20033;-36
2021/05/26 09:01:09;;;;;;;5.10;3.33;;;13.90;63.70;;;;;;5055898;28;20029;-36
2021/05/26 09:03:35;;;;;;;5.00;3.65;;;14.20;62.70;;;;;;5055889;28;20556;-35
2021/05/26 09:06:01;;;;;;;5.45;3.25;;;14.80;60.90;;;;;;5056192;28;20108;-34
2021/05/26 09:08:27;;;;;;;3.92;2.80;;;14.80;60.00;;;;;;5055828;28;20534;-35
2021/05/26 09:11:01;;;;;;;5.80;3.63;;;14.50;60.60;;;;;;5056083;28;20025;-36
2021/05/26 09:13:37;;;;;;;3.75;3.35;;;15.00;58.50;;;;;;5055821;28;20369;-35
2021/05/26 09:16:07;;;;;;;7.07;3.58;;;14.80;58.40;;;;;;5055585;28;20468;-34
2021/05/26 09:18:57;;;;;;;4.88;3.05;;;15.30;58.80;;;;;;5056124;28;20035;-35
2021/05/26 09:21:45;;;;;;;4.72;3.72;;;16.40;55.50;;;;;;5055812;28;20033;-37
2021/05/26 09:24:23;;;;;;;4.68;3.97;;;15.20;56.80;;;;;;5053856;28;20489;-37
2021/05/26 09:26:55;;;;;;;2.90;2.42;;;15.00;58.30;;;;;;5054656;28;20456;-36
2021/05/26 09:29:41;;;;;;;5.70;4.10;;;15.10;57.50;;;;;;5055613;28;20014;-36
2021/05/26 09:32:10;;;;;;;7.72;3.00;;;15.30;57.20;;;;;;5054372;28;20021;-36
2021/05/26 09:34:38;;;;;;;5.80;2.85;;;16.60;54.10;;;;;;5053501;28;20048;-44
2021/05/26 09:37:05;;;;;;;4.30;2.80;;;15.60;54.90;;;;;;5055054;28;20017;-36
2021/05/26 09:39:53;;;;;;;4.70;3.17;;;15.50;56.00;;;;;;5054177;28;20021;-35
2021/05/26 09:42:40;;;;;;;2.25;1.80;;;16.40;54.20;;;;;;5053875;28;20024;-35
2021/05/26 09:45:18;;;;;;;2.72;2.53;;;16.60;53.00;;;;;;5055348;28;20033;-36
2021/05/26 09:47:52;;;;;;;4.25;2.03;;;15.90;55.00;;;;;;5053718;28;20449;-40
2021/05/26 09:50:22;;;;;;;3.75;2.30;;;17.80;49.70;;;;;;5037967;28;20433;-36
2021/05/26 09:52:56;;;;;;;4.18;2.28;;;16.80;50.90;;;;;;5053951;28;20172;-36
2021/05/26 09:55:25;;;;;;;2.72;1.95;;;16.90;51.30;;;;;;5054932;28;20021;-35
2021/05/26 09:57:52;;;;;;;3.33;2.22;;;16.30;52.70;;;;;;5055169;28;20017;-35
2021/05/26 10:00:19;;;;;;;3.22;1.98;;;16.80;52.00;;;;;;5054599;28;20032;-35
2021/05/26 10:02:45;;;;;;;5.35;1.88;;;16.50;51.20;;;;;;5054744;28;20036;-36
2021/05/26 10:05:15;;;;;;;3.78;1.70;;;16.10;53.10;;;;;;5055137;28;20048;-35
2021/05/26 10:07:41;;;;;;;2.00;1.80;;;16.70;51.70;;;;;;5054908;28;20112;-36
2021/05/26 10:10:13;;;;;;;4.10;2.00;;;17.30;49.60;;;;;;5054436;28;20032;-35
2021/05/26 10:12:40;;;;;;;5.60;2.00;;;17.10;50.40;;;;;;5054797;28;20025;-36
2021/05/26 10:15:11;;;;;;;3.63;1.40;;;16.90;50.60;;;;;;5054728;28;20025;-36
2021/05/26 10:17:40;;;;;;;2.17;1.55;;;16.90;51.20;;;;;;5054875;28;20351;-35
2021/05/26 10:20:09;;;;;;;3.65;1.33;;;16.80;51.80;;;;;;5054886;28;20032;-36
2021/05/26 10:22:36;;;;;;;3.33;1.15;;;17.30;50.00;;;;;;5055211;28;20119;-38
2021/05/26 10:25:04;;;;;;;3.10;1.40;;;15.80;52.90;;;;;;5054437;28;20025;-36
2021/05/26 10:27:59;;;;;;;1.25;1.10;;;15.70;53.40;;;;;;5054446;28;20100;-37
2021/05/26 10:30:45;;;;;;;2.17;1.40;;;15.80;52.60;;;;;;5054317;28;20385;-36
2021/05/26 10:33:11;;;;;;;5.55;1.80;;;15.80;51.00;;;;;;5054461;28;20083;-35
2021/05/26 10:35:57;;;;;;;1.48;1.38;;;15.40;52.70;;;;;;5053163;28;20064;-35
2021/05/26 10:38:24;;;;;;;3.50;1.50;;;15.50;53.30;;;;;;5054465;28;20105;-36
2021/05/26 10:40:56;;;;;;;2.90;1.63;;;15.60;53.20;;;;;;5054056;28;20028;-36
2021/05/26 10:43:22;;;;;;;4.47;1.48;;;15.50;52.90;;;;;;5053807;28;20163;-36
2021/05/26 10:45:49;;;;;;;1.40;1.23;;;16.30;51.70;;;;;;5053807;28;20032;-36
2021/05/26 10:48:43;;;;;;;2.10;1.35;;;16.40;50.50;;;;;;5053980;28;20028;-35
2021/05/26 10:51:11;;;;;;;1.40;1.05;;;17.40;46.50;;;;;;5053586;28;20045;-36
2021/05/26 10:53:43;;;;;;;2.00;1.20;;;16.80;50.00;;;;;;5053862;28;20045;-36
2021/05/26 10:56:33;;;;;;;5.07;1.50;;;16.40;50.30;;;;;;5053945;28;20085;-35
2021/05/26 10:59:20;;;;;;;2.15;1.38;;;16.00;51.90;;;;;;5053648;28;20036;-37
2021/05/26 11:02:04;;;;;;;2.83;1.40;;;16.30;52.00;;;;;;5053585;28;20389;-35
2021/05/26 11:04:36;;;;;;;2.05;1.20;;;16.00;52.50;;;;;;5053879;28;20027;-37
2021/05/26 11:07:25;;;;;;;2.80;1.48;;;17.10;50.80;;;;;;5053790;28;20393;-36
2021/05/26 11:09:58;;;;;;;6.03;1.52;;;17.80;47.10;;;;;;5053325;28;20024;-35
2021/05/26 11:12:24;;;;;;;5.15;1.67;;;17.40;46.80;;;;;;5053238;28;20407;-35
2021/05/26 11:14:59;;;;;;;3.92;1.60;;;16.30;49.90;;;;;;5053024;28;20091;-36
2021/05/26 11:17:28;;;;;;;2.35;1.27;;;15.50;51.90;;;;;;5053460;28;20048;-37
2021/05/26 11:20:08;;;;;;;2.97;1.65;;;15.40;52.60;;;;;;5053452;28;20040;-36
2021/05/26 11:22:34;;;;;;;2.92;2.20;;;15.20;53.50;;;;;;5053812;28;20036;-36
2021/05/26 11:25:00;;;;;;;9.35;2.28;;;15.40;53.30;;;;;;5051946;28;20401;-36
2021/05/26 11:27:27;;;;;;;3.55;1.40;;;16.30;50.50;;;;;;5051925;28;20025;-35
2021/05/26 11:30:00;;;;;;;3.40;2.00;;;16.80;49.60;;;;;;5052493;28;20017;-36
2021/05/26 11:32:26;;;;;;;2.90;1.55;;;16.10;50.30;;;;;;5056155;28;20377;-35
2021/05/26 11:34:55;;;;;;;2.67;1.90;;;16.40;49.50;;;;;;5054175;28;20029;-36
2021/05/26 11:37:40;;;;;;;5.43;1.63;;;16.30;50.10;;;;;;5052721;28;20024;-36
2021/05/26 11:40:23;;;;;;;3.55;1.77;;;16.50;50.50;;;;;;5054063;28;20029;-36
2021/05/26 11:42:48;;;;;;;2.00;1.67;;;16.00;51.70;;;;;;5036165;28;20037;-38
2021/05/26 11:45:14;;;;;;;1.90;1.27;;;15.60;52.00;;;;;;5051701;28;20024;-36
2021/05/26 11:47:48;;;;;;;2.53;1.27;;;15.20;54.10;;;;;;5054533;28;20035;-38
2021/05/26 11:50:17;;;;;;;5.95;1.70;;;15.30;53.90;;;;;;5057891;28;20481;-35
2021/05/26 11:52:48;;;;;;;2.45;1.58;;;15.50;53.90;;;;;;5057591;28;20397;-36
2021/05/26 11:55:14;;;;;;;;;;;15.40;53.70;;;;;;5058200;28;20047;-38
2021/05/26 11:57:45;;;;;;;1.73;1.60;;;15.40;54.10;;;;;;5057538;28;19904;-36
2021/05/26 12:00:28;;;;;;;3.22;1.60;;;15.20;54.70;;;;;;5057969;28;20021;-35
2021/05/26 12:02:58;;;;;;;2.47;1.42;;;15.30;55.10;;;;;;5056058;28;20053;-37
2021/05/26 12:05:47;;;;;;;3.72;1.70;;;15.10;56.60;;;;;;5057028;28;20079;-36
2021/05/26 12:08:20;;;;;;;3.40;2.55;;;15.20;55.00;;;;;;5056585;28;20021;-37
2021/05/26 12:11:08;;;;;;;2.92;1.83;;;15.20;55.10;;;;;;5058032;28;20165;-35
2021/05/26 12:13:42;;;;;;;4.38;2.83;;;15.10;56.50;;;;;;5057399;28;20345;-36
2021/05/26 12:16:11;;;;;;;10.15;6.57;;;14.90;56.90;;;;;;5056967;28;20070;-37
2021/05/26 12:18:38;;;;;;;2.65;1.77;;;15.40;56.10;;;;;;5055341;28;20056;-38
2021/05/26 12:21:05;;;;;;;2.35;1.55;;;14.90;56.80;;;;;;5057696;28;20496;-37
2021/05/26 12:23:32;;;;;;;3.33;1.48;;;16.20;54.00;;;;;;5057069;28;20017;-37
2021/05/26 12:25:59;;;;;;;4.18;1.63;;;16.50;52.00;;;;;;5055964;28;20104;-36
2021/05/26 12:28:29;;;;;;;2.15;1.70;;;15.80;54.10;;;;;;5038614;28;20025;-36
2021/05/26 12:30:55;;;;;;;5.43;1.45;;;15.10;56.80;;;;;;5056885;28;20021;-36
2021/05/26 12:33:26;;;;;;;1.75;1.65;;;15.50;56.10;;;;;;5056425;28;20013;-36
2021/05/26 12:36:02;;;;;;;;;;;16.20;54.10;;;;;;5056675;28;20517;-36
2021/05/26 12:38:28;;;;;;;1.90;1.50;;;16.50;52.90;;;;;;5056356;28;19969;-35
2021/05/26 12:40:54;;;;;;;5.60;2.72;;;17.40;50.70;;;;;;5056362;28;20017;-36
2021/05/26 12:43:33;;;;;;;3.97;2.00;;;17.30;48.50;;;;;;5056360;28;20017;-36
2021/05/26 12:45:58;;;;;;;2.47;1.80;;;16.50;49.50;;;;;;5056409;28;20116;-36
2021/05/26 12:48:32;;;;;;;3.15;1.80;;;17.40;47.50;;;;;;5054772;28;20386;-37
2021/05/26 12:54:46;;;;;;;4.45;2.17;;;17.60;48.20;;;;;;5051248;27;20099;-36
2021/05/26 12:57:23;;;;;;;1.88;1.65;;;17.00;49.70;;;;;;5096444;28;20055;-38
2021/05/26 12:59:58;;;;;;;2.72;1.40;;;18.00;47.00;;;;;;5095962;28;20028;-37